Time;durP1;ratioP1;P1;durP2;ratioP2;P2;SDS_P1;SDS_P2;PMS_P1;PMS_P2;Temp;Humidity;BMP_temperature;BMP_pressure;BME280_temperature;BME280_humidity;BME280_pressure;Samples;Min_cycle;Max_cycle;Signal;HPM_P1;HPM_P2
2022/12/16 00:01:50;;;;;;;22.70;11.53;;;;;;;-5.63;100.00;98273.75;4973411;28;20226;-77
2022/12/16 00:04:19;;;;;;;23.20;11.20;;;;;;;-5.54;100.00;98273.63;4983052;28;20285;-77
2022/12/16 00:06:49;;;;;;;23.00;11.67;;;;;;;-5.44;100.00;98277.75;5032908;28;20715;-76
2022/12/16 00:09:18;;;;;;;20.90;11.23;;;;;;;-5.56;100.00;98273.63;5032983;28;20206;-77
2022/12/16 00:11:47;;;;;;;20.33;11.00;;;;;;;-5.48;100.00;98278.69;5030783;28;20197;-77
2022/12/16 00:14:16;;;;;;;20.47;10.80;;;;;;;-5.45;100.00;98272.63;5029272;28;20190;-77
2022/12/16 00:16:44;;;;;;;20.10;10.40;;;;;;;-5.43;100.00;98265.72;5067735;28;20196;-77
2022/12/16 00:19:16;;;;;;;18.30;9.43;;;;;;;-5.43;100.00;98258.84;5086821;28;20204;-76
2022/12/16 00:21:46;;;;;;;18.00;10.07;;;;;;;-5.49;100.00;98256.34;5127115;27;20213;-77
2022/12/16 00:24:16;;;;;;;20.10;10.87;;;;;;;-5.49;100.00;98259.78;5178126;27;20189;-77
2022/12/16 00:26:44;;;;;;;17.63;9.97;;;;;;;-5.47;100.00;98260.63;5174716;27;20249;-77
2022/12/16 00:29:13;;;;;;;21.63;10.63;;;;;;;-5.47;100.00;98258.03;5170978;27;20232;-76
2022/12/16 00:31:41;;;;;;;19.13;9.80;;;;;;;-5.47;100.00;98254.59;5170665;27;20299;-78
2022/12/16 00:34:12;;;;;;;16.83;9.57;;;;;;;-5.55;100.00;98252.13;5176797;27;20190;-77
2022/12/16 00:36:40;;;;;;;18.13;10.20;;;;;;;-5.64;100.00;98256.56;5174631;27;20186;-77
2022/12/16 00:39:08;;;;;;;19.83;10.00;;;;;;;-5.63;100.00;98256.53;5172317;27;20189;-77
2022/12/16 00:41:38;;;;;;;22.17;9.97;;;;;;;-5.78;100.00;98252.47;5168543;27;20213;-78
2022/12/16 00:44:08;;;;;;;20.37;10.20;;;;;;;-5.79;100.00;98250.75;5177149;27;20185;-77
2022/12/16 00:46:37;;;;;;;20.60;10.30;;;;;;;-5.80;100.00;98253.34;5170428;27;20699;-77
2022/12/16 00:49:07;;;;;;;20.80;11.13;;;;;;;-5.89;100.00;98248.28;5129828;27;20198;-77
2022/12/16 00:51:36;;;;;;;21.57;10.13;;;;;;;-5.83;100.00;98248.22;5130508;27;20198;-77
2022/12/16 00:54:04;;;;;;;17.43;9.40;;;;;;;-5.77;100.00;98246.44;5088954;28;20249;-77
2022/12/16 00:56:33;;;;;;;16.90;9.27;;;;;;;-5.65;100.00;98244.56;5032174;28;20193;-77
2022/12/16 00:59:03;;;;;;;21.70;10.47;;;;;;;-5.60;100.00;98241.00;4972868;28;20199;-77
2022/12/16 01:01:31;;;;;;;19.17;9.63;;;;;;;-5.55;100.00;98243.53;4967760;28;20231;-78
2022/12/16 01:03:59;;;;;;;19.00;9.33;;;;;;;-5.68;100.00;98239.44;4970711;28;20203;-76
2022/12/16 01:06:27;;;;;;;18.73;9.23;;;;;;;-5.74;100.00;98245.53;4975464;28;20199;-78
2022/12/16 01:08:56;;;;;;;21.57;9.47;;;;;;;-5.70;100.00;98248.91;4990633;28;20207;-77
2022/12/16 01:11:25;;;;;;;18.10;9.13;;;;;;;-5.71;100.00;98248.06;4999705;28;20197;-78
2022/12/16 01:13:54;;;;;;;18.20;9.50;;;;;;;-5.62;100.00;98254.81;5055144;28;20248;-77
2022/12/16 01:16:25;;;;;;;18.77;8.30;;;;;;;-5.66;100.00;98261.75;5118579;27;20197;-77
2022/12/16 01:18:55;;;;;;;17.37;8.57;;;;;;;-5.68;100.00;98270.38;5166562;27;20217;-77
2022/12/16 01:21:26;;;;;;;18.10;8.50;;;;;;;-5.63;100.00;98271.16;5174064;27;20256;-77
2022/12/16 01:23:54;;;;;;;17.30;8.00;;;;;;;-5.61;100.00;98264.25;5166566;27;20250;-77
2022/12/16 01:26:23;;;;;;;19.23;8.77;;;;;;;-5.61;100.00;98270.25;5169317;27;20253;-77
2022/12/16 01:28:51;;;;;;;14.43;8.30;;;;;;;-5.59;100.00;98268.53;5173181;27;20285;-77
2022/12/16 01:31:23;;;;;;;20.40;9.33;;;;;;;-5.55;100.00;98274.50;5168129;27;20192;-77
2022/12/16 01:33:54;;;;;;;17.30;7.93;;;;;;;-5.64;100.00;98278.03;5171538;27;20643;-77
2022/12/16 01:36:23;;;;;;;14.33;7.97;;;;;;;-5.63;100.00;98278.91;5174937;27;20189;-77
2022/12/16 01:38:53;;;;;;;18.53;8.57;;;;;;;-5.57;100.00;98287.41;5172222;27;20193;-77
2022/12/16 01:41:23;;;;;;;18.00;8.53;;;;;;;-5.56;100.00;98281.38;5167398;27;20217;-77
2022/12/16 01:43:51;;;;;;;15.10;8.03;;;;;;;-5.44;100.00;98287.22;5132288;27;20306;-77
2022/12/16 01:46:24;;;;;;;16.60;8.03;;;;;;;-5.53;100.00;98290.78;5174266;27;20218;-77
2022/12/16 01:48:59;;;;;;;19.23;8.60;;;;;;;-5.56;100.00;98296.84;5169996;27;20203;-77
2022/12/16 01:51:33;;;;;;;13.77;8.03;;;;;;;-5.75;100.00;98300.56;5174488;27;20228;-77
2022/12/16 01:54:09;;;;;;;17.40;8.00;;;;;;;-5.78;100.00;98296.28;5170270;27;20646;-77
2022/12/16 01:56:42;;;;;;;17.30;8.13;;;;;;;-5.84;100.00;98292.94;5171366;27;20196;-77
2022/12/16 01:59:14;;;;;;;16.83;8.03;;;;;;;-5.85;100.00;98296.38;5169174;27;20667;-77
2022/12/16 02:01:42;;;;;;;15.97;8.30;;;;;;;-5.80;100.00;98305.75;5169544;27;20225;-77
2022/12/16 02:04:15;;;;;;;14.93;7.63;;;;;;;-5.78;100.00;98305.75;5172601;27;20196;-77
2022/12/16 02:06:44;;;;;;;16.37;7.90;;;;;;;-5.80;100.00;98298.00;5169618;27;20230;-77
2022/12/16 02:09:14;;;;;;;14.60;7.83;;;;;;;-5.73;100.00;98300.53;5171443;27;20193;-77
2022/12/16 02:12:11;;;;;;;14.40;7.47;;;;;;;-5.72;100.00;98297.91;5121820;27;20631;-77
2022/12/16 02:14:58;;;;;;;14.47;7.07;;;;;;;-5.71;100.00;98296.19;5175255;27;20185;-77
2022/12/16 02:17:38;;;;;;;15.13;7.50;;;;;;;-5.70;100.00;98297.91;5169893;27;20196;-77
2022/12/16 02:20:35;;;;;;;13.50;7.50;;;;;;;-5.77;100.00;98299.72;5175141;27;20189;-77
2022/12/16 02:23:27;;;;;;;16.20;8.27;;;;;;;-5.78;100.00;98296.28;5175019;27;20244;-77
2022/12/16 02:26:27;;;;;;;14.07;7.33;;;;;;;-5.87;100.00;98293.81;5158669;27;20777;-76
2022/12/16 02:29:19;;;;;;;14.47;7.27;;;;;;;-5.82;100.00;98298.91;5159226;27;20192;-77
2022/12/16 02:31:59;;;;;;;14.43;6.90;;;;;;;-5.86;100.00;98297.25;5170374;27;20196;-77
2022/12/16 02:34:36;;;;;;;13.20;6.73;;;;;;;-5.83;100.00;98299.78;5057298;28;20191;-77
2022/12/16 02:37:18;;;;;;;11.53;6.10;;;;;;;-5.81;100.00;98300.63;5084011;28;20195;-77
2022/12/16 02:39:52;;;;;;;11.17;6.30;;;;;;;-5.80;100.00;98302.31;5086836;28;20241;-77
2022/12/16 02:42:30;;;;;;;12.63;5.80;;;;;;;-5.78;100.00;98305.75;5087098;28;20270;-77
2022/12/16 02:45:04;;;;;;;12.80;5.80;;;;;;;-5.65;100.00;98303.84;5081044;28;20231;-77
2022/12/16 02:47:34;;;;;;;10.17;5.30;;;;;;;-5.67;100.00;98303.88;5089145;28;20231;-77
2022/12/16 02:50:16;;;;;;;11.97;5.70;;;;;;;-5.64;100.00;98298.69;5038073;28;20196;-77
2022/12/16 02:52:47;;;;;;;10.27;5.30;;;;;;;-5.52;100.00;98303.66;5138380;27;20196;-76
2022/12/16 02:55:17;;;;;;;8.90;5.03;;;;;;;-5.50;100.00;98303.63;5133415;27;20245;-77
2022/12/16 02:58:00;;;;;;;10.67;4.93;;;;;;;-5.47;100.00;98301.88;5109163;28;20225;-76
2022/12/16 03:00:35;;;;;;;8.83;4.73;;;;;;;-5.37;100.00;98312.94;5105740;28;20194;-77
2022/12/16 03:03:12;;;;;;;12.13;5.30;;;;;;;-5.36;100.00;98304.31;5072398;28;20210;-77
2022/12/16 03:05:47;;;;;;;11.53;4.80;;;;;;;-5.27;100.00;98305.91;5108008;28;20183;-77
2022/12/16 03:08:22;;;;;;;12.13;5.40;;;;;;;-5.24;100.00;98304.13;5069027;28;20272;-77
2022/12/16 03:10:55;;;;;;;8.80;4.23;;;;;;;-5.36;100.00;98303.47;5067997;28;20184;-77
2022/12/16 03:13:24;;;;;;;9.47;4.53;;;;;;;-5.41;100.00;98293.19;5068234;28;20207;-77
2022/12/16 03:15:55;;;;;;;8.17;4.40;;;;;;;-5.37;100.00;98299.19;5097474;27;20198;-77
2022/12/16 03:18:27;;;;;;;8.80;4.60;;;;;;;-5.34;100.00;98299.13;5126700;27;20613;-77
2022/12/16 03:21:00;;;;;;;8.97;4.67;;;;;;;-5.39;100.00;98296.63;5130007;27;20218;-77
2022/12/16 03:23:35;;;;;;;9.37;4.93;;;;;;;-5.43;100.00;98301.84;5112181;28;20251;-77
2022/12/16 03:26:09;;;;;;;9.17;4.77;;;;;;;-5.49;100.00;98306.22;5114724;27;20193;-77
2022/12/16 03:28:44;;;;;;;10.30;5.43;;;;;;;-5.36;100.00;98304.31;5134367;27;20201;-78
2022/12/16 03:31:27;;;;;;;12.27;5.13;;;;;;;-5.44;100.00;98302.72;5114050;27;20197;-78
2022/12/16 03:34:04;;;;;;;9.43;4.73;;;;;;;-5.37;100.00;98305.19;5133987;27;20202;-78
2022/12/16 03:36:37;;;;;;;7.07;4.60;;;;;;;-5.35;100.00;98308.59;5132956;27;20201;-78
2022/12/16 03:39:08;;;;;;;9.60;5.20;;;;;;;-5.37;100.00;98302.59;5132992;27;20251;-78
2022/12/16 03:41:38;;;;;;;10.90;4.93;;;;;;;-5.54;100.00;98302.84;5154322;27;20220;-77
2022/12/16 03:44:08;;;;;;;7.73;4.57;;;;;;;-5.53;100.00;98299.38;5168837;27;20233;-77
2022/12/16 03:46:38;;;;;;;8.67;5.00;;;;;;;-5.71;100.00;98304.78;5174357;27;20188;-77
2022/12/16 03:49:08;;;;;;;9.40;5.03;;;;;;;-5.60;100.00;98309.78;5171067;27;20193;-77
2022/12/16 03:51:37;;;;;;;9.43;4.73;;;;;;;-5.69;100.00;98310.78;5172551;27;20643;-76
2022/12/16 03:54:05;;;;;;;14.33;6.03;;;;;;;-5.61;100.00;98305.50;5178110;27;20245;-76
2022/12/16 03:56:34;;;;;;;11.07;5.87;;;;;;;-5.68;100.00;98321.97;5173235;27;20260;-77
2022/12/16 03:59:02;;;;;;;12.80;6.00;;;;;;;-5.82;100.00;98328.13;5174668;27;20657;-77
2022/12/16 04:01:32;;;;;;;8.17;4.97;;;;;;;-5.88;100.00;98324.78;5168572;27;20192;-77
2022/12/16 04:04:00;;;;;;;11.57;5.43;;;;;;;-5.92;100.00;98323.97;5169476;27;20208;-76
2022/12/16 04:06:32;;;;;;;10.17;5.47;;;;;;;-5.84;100.00;98327.28;5170128;27;20237;-76
2022/12/16 04:09:02;;;;;;;13.60;6.53;;;;;;;-6.02;100.00;98327.53;5123261;27;20223;-77
2022/12/16 04:25:29;;;;;;;11.57;5.77;;;;;;;-6.37;100.00;98336.50;5177394;27;20188;-77
2022/12/16 04:27:59;;;;;;;13.07;6.37;;;;;;;-6.49;100.00;98343.47;5174110;27;20222;-77
2022/12/16 04:30:33;;;;;;;13.23;6.83;;;;;;;-6.47;100.00;98339.16;5171698;27;20185;-77
